sensor_id;sensor_type;location;lat;lon;timestamp;pressure;altitude;pressure_sealevel;temperature;humidity
61488;BME280;47351;53.326;-6.298;2023-04-25T00:00:38;101558.65;;;6.14;70.44
61488;BME280;47351;53.326;-6.298;2023-04-25T00:03:29;101558.61;;;6.13;70.32
61488;BME280;47351;53.326;-6.298;2023-04-25T00:06:32;101567.65;;;6.10;70.33
61488;BME280;47351;53.326;-6.298;2023-04-25T00:09:30;101572.98;;;6.10;70.70
61488;BME280;47351;53.326;-6.298;2023-04-25T00:12:41;101576.47;;;6.08;70.84
61488;BME280;47351;53.326;-6.298;2023-04-25T00:15:34;101580.81;;;6.07;70.93
61488;BME280;47351;53.326;-6.298;2023-04-25T00:18:26;101582.98;;;6.09;71.36
61488;BME280;47351;53.326;-6.298;2023-04-25T00:21:39;101578.39;;;6.11;71.47
61488;BME280;47351;53.326;-6.298;2023-04-25T00:24:30;101572.08;;;6.13;71.57
61488;BME280;47351;53.326;-6.298;2023-04-25T00:27:21;101568.28;;;6.14;71.71
61488;BME280;47351;53.326;-6.298;2023-04-25T00:30:14;101565.52;;;6.15;71.94
61488;BME280;47351;53.326;-6.298;2023-04-25T00:33:04;101570.45;;;6.16;71.96
61488;BME280;47351;53.326;-6.298;2023-04-25T00:35:58;101568.67;;;6.18;72.48
61488;BME280;47351;53.326;-6.298;2023-04-25T00:38:48;101568.54;;;6.22;72.57
61488;BME280;47351;53.326;-6.298;2023-04-25T00:41:49;101566.89;;;6.26;72.62
61488;BME280;47351;53.326;-6.298;2023-04-25T00:44:42;101565.15;;;6.28;72.68
61488;BME280;47351;53.326;-6.298;2023-04-25T00:47:32;101566.20;;;6.28;72.74
61488;BME280;47351;53.326;-6.298;2023-04-25T00:50:25;101565.39;;;6.27;72.62
61488;BME280;47351;53.326;-6.298;2023-04-25T00:53:36;101567.61;;;6.23;72.53
61488;BME280;47351;53.326;-6.298;2023-04-25T00:56:29;101573.06;;;6.18;72.39
61488;BME280;47351;53.326;-6.298;2023-04-25T00:59:21;101574.45;;;6.14;72.55
61488;BME280;47351;53.326;-6.298;2023-04-25T01:02:34;101577.86;;;6.08;72.56
61488;BME280;47351;53.326;-6.298;2023-04-25T01:05:36;101579.50;;;6.02;72.47
61488;BME280;47351;53.326;-6.298;2023-04-25T01:08:38;101581.19;;;5.96;72.56
61488;BME280;47351;53.326;-6.298;2023-04-25T01:11:29;101580.41;;;5.91;72.84
61488;BME280;47351;53.326;-6.298;2023-04-25T01:14:29;101578.12;;;5.87;72.89
61488;BME280;47351;53.326;-6.298;2023-04-25T01:17:40;101574.01;;;5.79;73.04
61488;BME280;47351;53.326;-6.298;2023-04-25T01:20:33;101572.54;;;5.72;73.18
61488;BME280;47351;53.326;-6.298;2023-04-25T01:23:23;101574.42;;;5.66;73.37
61488;BME280;47351;53.326;-6.298;2023-04-25T01:26:27;101575.77;;;5.62;73.79
61488;BME280;47351;53.326;-6.298;2023-04-25T01:29:19;101572.63;;;5.58;74.13
61488;BME280;47351;53.326;-6.298;2023-04-25T01:32:12;101569.02;;;5.54;74.36
61488;BME280;47351;53.326;-6.298;2023-04-25T01:35:04;101563.25;;;5.50;74.59
61488;BME280;47351;53.326;-6.298;2023-04-25T01:37:58;101559.77;;;5.49;75.14
61488;BME280;47351;53.326;-6.298;2023-04-25T01:40:51;101555.76;;;5.48;75.45
61488;BME280;47351;53.326;-6.298;2023-04-25T01:43:44;101559.46;;;5.46;75.56
61488;BME280;47351;53.326;-6.298;2023-04-25T01:46:48;101561.98;;;5.40;75.47
61488;BME280;47351;53.326;-6.298;2023-04-25T01:49:38;101564.17;;;5.34;75.52
61488;BME280;47351;53.326;-6.298;2023-04-25T01:52:29;101563.81;;;5.29;75.74
61488;BME280;47351;53.326;-6.298;2023-04-25T01:55:20;101557.84;;;5.23;75.85
61488;BME280;47351;53.326;-6.298;2023-04-25T01:58:18;101554.83;;;5.18;76.07
61488;BME280;47351;53.326;-6.298;2023-04-25T02:01:31;101554.04;;;5.14;76.36
61488;BME280;47351;53.326;-6.298;2023-04-25T02:04:32;101558.19;;;5.09;76.51
61488;BME280;47351;53.326;-6.298;2023-04-25T02:07:23;101564.56;;;5.07;76.58
61488;BME280;47351;53.326;-6.298;2023-04-25T02:10:14;101569.83;;;5.05;76.67
61488;BME280;47351;53.326;-6.298;2023-04-25T02:13:24;101571.20;;;5.05;77.16
61488;BME280;47351;53.326;-6.298;2023-04-25T02:16:44;101572.11;;;5.10;77.62
61488;BME280;47351;53.326;-6.298;2023-04-25T02:19:37;101575.56;;;5.15;77.59
61488;BME280;47351;53.326;-6.298;2023-04-25T02:22:48;101571.66;;;5.18;77.53
61488;BME280;47351;53.326;-6.298;2023-04-25T02:25:48;101569.64;;;5.21;77.69
61488;BME280;47351;53.326;-6.298;2023-04-25T02:28:39;101570.64;;;5.25;77.65
61488;BME280;47351;53.326;-6.298;2023-04-25T02:31:32;101565.20;;;5.27;77.47
61488;BME280;47351;53.326;-6.298;2023-04-25T02:34:38;101568.74;;;5.29;77.43
61488;BME280;47351;53.326;-6.298;2023-04-25T02:37:38;101569.98;;;5.29;77.25
61488;BME280;47351;53.326;-6.298;2023-04-25T02:40:29;101573.98;;;5.25;76.99
61488;BME280;47351;53.326;-6.298;2023-04-25T02:43:38;101576.05;;;5.21;77.18
61488;BME280;47351;53.326;-6.298;2023-04-25T02:46:49;101572.63;;;5.16;77.48
61488;BME280;47351;53.326;-6.298;2023-04-25T02:50:00;101570.19;;;5.13;77.70
61488;BME280;47351;53.326;-6.298;2023-04-25T02:52:50;101569.39;;;5.08;77.79
61488;BME280;47351;53.326;-6.298;2023-04-25T02:55:57;101565.64;;;5.04;77.87
61488;BME280;47351;53.326;-6.298;2023-04-25T02:58:51;101567.53;;;5.00;77.88
61488;BME280;47351;53.326;-6.298;2023-04-25T03:01:53;101566.57;;;4.95;78.08
61488;BME280;47351;53.326;-6.298;2023-04-25T03:04:46;101564.36;;;4.91;78.11
61488;BME280;47351;53.326;-6.298;2023-04-25T03:07:39;101559.05;;;4.86;78.15
61488;BME280;47351;53.326;-6.298;2023-04-25T03:10:38;101557.05;;;4.81;78.31
61488;BME280;47351;53.326;-6.298;2023-04-25T03:13:31;101554.14;;;4.77;78.47
61488;BME280;47351;53.326;-6.298;2023-04-25T03:16:25;101555.27;;;4.73;78.55
61488;BME280;47351;53.326;-6.298;2023-04-25T03:19:16;101553.69;;;4.68;78.38
61488;BME280;47351;53.326;-6.298;2023-04-25T03:22:06;101555.75;;;4.60;78.28
61488;BME280;47351;53.326;-6.298;2023-04-25T03:25:17;101558.36;;;4.53;78.42
61488;BME280;47351;53.326;-6.298;2023-04-25T03:28:11;101561.73;;;4.47;78.69
61488;BME280;47351;53.326;-6.298;2023-04-25T03:31:21;101565.80;;;4.41;78.99
61488;BME280;47351;53.326;-6.298;2023-04-25T03:34:32;101571.61;;;4.36;79.10
61488;BME280;47351;53.326;-6.298;2023-04-25T03:37:42;101575.35;;;4.30;79.21
61488;BME280;47351;53.326;-6.298;2023-04-25T03:40:38;101579.69;;;4.26;79.31
61488;BME280;47351;53.326;-6.298;2023-04-25T03:43:49;101580.02;;;4.24;79.61
61488;BME280;47351;53.326;-6.298;2023-04-25T03:46:43;101576.66;;;4.24;80.01
61488;BME280;47351;53.326;-6.298;2023-04-25T03:49:36;101576.73;;;4.25;80.36
61488;BME280;47351;53.326;-6.298;2023-04-25T03:52:46;101578.60;;;4.26;80.29
61488;BME280;47351;53.326;-6.298;2023-04-25T03:55:47;101576.67;;;4.26;80.11
61488;BME280;47351;53.326;-6.298;2023-04-25T03:58:51;101579.73;;;4.25;79.94
61488;BME280;47351;53.326;-6.298;2023-04-25T04:01:46;101580.89;;;4.24;79.96
61488;BME280;47351;53.326;-6.298;2023-04-25T04:04:39;101579.90;;;4.25;80.37
61488;BME280;47351;53.326;-6.298;2023-04-25T04:07:33;101571.30;;;4.27;80.53
61488;BME280;47351;53.326;-6.298;2023-04-25T04:10:48;101570.52;;;4.29;80.64
61488;BME280;47351;53.326;-6.298;2023-04-25T04:13:48;101568.30;;;4.27;80.48
61488;BME280;47351;53.326;-6.298;2023-04-25T04:16:52;101566.20;;;4.24;80.18
61488;BME280;47351;53.326;-6.298;2023-04-25T04:20:03;101566.27;;;4.20;80.11
61488;BME280;47351;53.326;-6.298;2023-04-25T04:23:15;101571.04;;;4.14;80.00
61488;BME280;47351;53.326;-6.298;2023-04-25T04:26:25;101576.38;;;4.08;79.78
61488;BME280;47351;53.326;-6.298;2023-04-25T04:29:39;101574.11;;;3.99;79.58
61488;BME280;47351;53.326;-6.298;2023-04-25T04:32:36;101574.22;;;3.92;79.75
61488;BME280;47351;53.326;-6.298;2023-04-25T04:35:40;101577.05;;;3.86;79.92
61488;BME280;47351;53.326;-6.298;2023-04-25T04:38:38;101581.90;;;3.81;80.14
61488;BME280;47351;53.326;-6.298;2023-04-25T04:41:34;101588.09;;;3.78;80.29
61488;BME280;47351;53.326;-6.298;2023-04-25T04:44:51;101587.52;;;3.73;80.24
61488;BME280;47351;53.326;-6.298;2023-04-25T04:48:06;101588.66;;;3.66;79.98
61488;BME280;47351;53.326;-6.298;2023-04-25T04:51:17;101588.99;;;3.60;79.99
61488;BME280;47351;53.326;-6.298;2023-04-25T04:54:30;101589.10;;;3.55;80.14
61488;BME280;47351;53.326;-6.298;2023-04-25T04:57:53;101590.12;;;3.50;80.26
61488;BME280;47351;53.326;-6.298;2023-04-25T05:01:06;101589.23;;;3.44;80.07
61488;BME280;47351;53.326;-6.298;2023-04-25T05:04:15;101593.02;;;3.40;80.32
61488;BME280;47351;53.326;-6.298;2023-04-25T05:07:44;101593.38;;;3.37;80.60
61488;BME280;47351;53.326;-6.298;2023-04-25T05:11:06;101593.15;;;3.35;80.75
61488;BME280;47351;53.326;-6.298;2023-04-25T05:14:23;101596.48;;;3.33;80.63
61488;BME280;47351;53.326;-6.298;2023-04-25T05:17:48;101606.09;;;3.31;80.76
61488;BME280;47351;53.326;-6.298;2023-04-25T05:20:48;101612.18;;;3.32;80.84
61488;BME280;47351;53.326;-6.298;2023-04-25T05:24:05;101611.73;;;3.34;80.80
61488;BME280;47351;53.326;-6.298;2023-04-25T05:27:17;101611.31;;;3.38;80.94
61488;BME280;47351;53.326;-6.298;2023-04-25T05:30:29;101611.42;;;3.45;81.18
61488;BME280;47351;53.326;-6.298;2023-04-25T05:33:46;101611.59;;;3.52;81.14
61488;BME280;47351;53.326;-6.298;2023-04-25T05:36:50;101609.73;;;3.59;81.19
61488;BME280;47351;53.326;-6.298;2023-04-25T05:39:44;101612.48;;;3.66;81.12
61488;BME280;47351;53.326;-6.298;2023-04-25T05:42:52;101617.99;;;3.75;81.43
61488;BME280;47351;53.326;-6.298;2023-04-25T05:46:03;101617.52;;;3.79;80.85
61488;BME280;47351;53.326;-6.298;2023-04-25T05:49:23;101615.84;;;3.81;80.42
61488;BME280;47351;53.326;-6.298;2023-04-25T05:52:40;101617.07;;;3.81;80.33
61488;BME280;47351;53.326;-6.298;2023-04-25T05:55:51;101618.15;;;3.83;80.42
61488;BME280;47351;53.326;-6.298;2023-04-25T05:58:43;101618.58;;;3.85;80.37
61488;BME280;47351;53.326;-6.298;2023-04-25T06:01:54;101621.96;;;3.88;80.34
61488;BME280;47351;53.326;-6.298;2023-04-25T06:04:48;101620.98;;;3.89;80.17
61488;BME280;47351;53.326;-6.298;2023-04-25T06:07:40;101623.55;;;3.91;80.04
61488;BME280;47351;53.326;-6.298;2023-04-25T06:10:43;101625.89;;;3.93;80.06
61488;BME280;47351;53.326;-6.298;2023-04-25T06:13:44;101629.26;;;3.95;80.21
61488;BME280;47351;53.326;-6.298;2023-04-25T06:16:54;101632.66;;;4.00;80.39
61488;BME280;47351;53.326;-6.298;2023-04-25T06:20:06;101635.30;;;4.06;80.54
61488;BME280;47351;53.326;-6.298;2023-04-25T06:23:17;101639.15;;;4.13;80.54
61488;BME280;47351;53.326;-6.298;2023-04-25T06:26:28;101643.30;;;4.20;80.38
61488;BME280;47351;53.326;-6.298;2023-04-25T06:29:20;101640.77;;;4.24;80.17
61488;BME280;47351;53.326;-6.298;2023-04-25T06:32:24;101638.91;;;4.25;79.84
61488;BME280;47351;53.326;-6.298;2023-04-25T06:35:22;101641.92;;;4.28;79.73
61488;BME280;47351;53.326;-6.298;2023-04-25T06:38:33;101641.52;;;4.32;79.68
61488;BME280;47351;53.326;-6.298;2023-04-25T06:41:44;101642.96;;;4.40;79.89
61488;BME280;47351;53.326;-6.298;2023-04-25T06:44:53;101643.23;;;4.49;80.00
61488;BME280;47351;53.326;-6.298;2023-04-25T06:47:51;101637.17;;;4.59;79.81
61488;BME280;47351;53.326;-6.298;2023-04-25T06:50:42;101634.21;;;4.70;79.70
61488;BME280;47351;53.326;-6.298;2023-04-25T06:53:36;101633.79;;;4.79;79.56
61488;BME280;47351;53.326;-6.298;2023-04-25T06:56:36;101630.23;;;4.87;79.14
61488;BME280;47351;53.326;-6.298;2023-04-25T06:59:30;101629.41;;;4.97;79.00
61488;BME280;47351;53.326;-6.298;2023-04-25T07:02:32;101623.06;;;5.11;78.83
61488;BME280;47351;53.326;-6.298;2023-04-25T07:05:44;101618.54;;;5.25;78.53
61488;BME280;47351;53.326;-6.298;2023-04-25T07:08:38;101621.70;;;5.39;78.42
61488;BME280;47351;53.326;-6.298;2023-04-25T07:11:28;101621.25;;;5.54;78.34
61488;BME280;47351;53.326;-6.298;2023-04-25T07:14:19;101617.42;;;5.69;78.16
61488;BME280;47351;53.326;-6.298;2023-04-25T07:17:10;101616.13;;;5.83;77.88
61488;BME280;47351;53.326;-6.298;2023-04-25T07:20:07;101614.52;;;5.96;77.71
61488;BME280;47351;53.326;-6.298;2023-04-25T07:23:01;101613.38;;;6.10;77.49
61488;BME280;47351;53.326;-6.298;2023-04-25T07:25:54;101615.68;;;6.25;77.31
61488;BME280;47351;53.326;-6.298;2023-04-25T07:28:46;101610.69;;;6.43;76.93
61488;BME280;47351;53.326;-6.298;2023-04-25T07:31:51;101614.13;;;6.59;76.51
61488;BME280;47351;53.326;-6.298;2023-04-25T07:34:42;101617.00;;;6.79;76.33
61488;BME280;47351;53.326;-6.298;2023-04-25T07:37:36;101618.64;;;6.97;75.80
61488;BME280;47351;53.326;-6.298;2023-04-25T07:40:34;101611.73;;;7.14;75.24
61488;BME280;47351;53.326;-6.298;2023-04-25T07:43:29;101611.45;;;7.30;74.80
61488;BME280;47351;53.326;-6.298;2023-04-25T07:46:20;101619.63;;;7.44;74.31
61488;BME280;47351;53.326;-6.298;2023-04-25T07:49:13;101621.87;;;7.54;73.82
61488;BME280;47351;53.326;-6.298;2023-04-25T07:52:07;101620.61;;;7.64;73.38
61488;BME280;47351;53.326;-6.298;2023-04-25T07:54:59;101622.88;;;7.78;73.23
61488;BME280;47351;53.326;-6.298;2023-04-25T07:58:01;101619.40;;;7.96;73.07
61488;BME280;47351;53.326;-6.298;2023-04-25T08:00:53;101619.23;;;8.14;72.52
61488;BME280;47351;53.326;-6.298;2023-04-25T08:03:55;101621.84;;;8.30;71.76
61488;BME280;47351;53.326;-6.298;2023-04-25T08:07:07;101618.70;;;8.48;71.30
61488;BME280;47351;53.326;-6.298;2023-04-25T08:10:09;101615.23;;;8.60;70.98
61488;BME280;47351;53.326;-6.298;2023-04-25T08:13:00;101613.49;;;8.68;70.91
61488;BME280;47351;53.326;-6.298;2023-04-25T08:15:51;101615.67;;;8.74;70.94
61488;BME280;47351;53.326;-6.298;2023-04-25T08:18:42;101613.42;;;8.87;70.90
61488;BME280;47351;53.326;-6.298;2023-04-25T08:21:32;101612.49;;;9.87;69.66
61488;BME280;47351;53.326;-6.298;2023-04-25T08:24:25;101603.80;;;11.66;67.01
61488;BME280;47351;53.326;-6.298;2023-04-25T08:27:16;101592.31;;;13.65;64.24
61488;BME280;47351;53.326;-6.298;2023-04-25T08:30:08;101593.46;;;15.49;61.44
61488;BME280;47351;53.326;-6.298;2023-04-25T08:32:59;101590.75;;;17.21;59.31
61488;BME280;47351;53.326;-6.298;2023-04-25T08:36:09;101589.61;;;19.02;55.92
61488;BME280;47351;53.326;-6.298;2023-04-25T08:38:59;101595.39;;;20.45;53.62
61488;BME280;47351;53.326;-6.298;2023-04-25T08:41:50;101596.11;;;20.93;52.14
61488;BME280;47351;53.326;-6.298;2023-04-25T08:44:42;101594.17;;;21.68;49.87
61488;BME280;47351;53.326;-6.298;2023-04-25T08:47:33;101590.91;;;22.75;47.55
61488;BME280;47351;53.326;-6.298;2023-04-25T08:50:24;101589.35;;;23.72;46.36
61488;BME280;47351;53.326;-6.298;2023-04-25T08:53:15;101589.15;;;24.71;44.25
61488;BME280;47351;53.326;-6.298;2023-04-25T08:56:08;101581.42;;;25.61;42.61
61488;BME280;47351;53.326;-6.298;2023-04-25T08:59:02;101577.80;;;26.29;40.22
61488;BME280;47351;53.326;-6.298;2023-04-25T09:01:52;101580.73;;;26.58;38.27
61488;BME280;47351;53.326;-6.298;2023-04-25T09:04:44;101577.39;;;27.16;38.00
61488;BME280;47351;53.326;-6.298;2023-04-25T09:07:34;101574.15;;;27.74;36.35
61488;BME280;47351;53.326;-6.298;2023-04-25T09:10:26;101577.00;;;27.09;35.23
61488;BME280;47351;53.326;-6.298;2023-04-25T09:13:25;101575.69;;;26.73;35.45
61488;BME280;47351;53.326;-6.298;2023-04-25T09:16:52;101570.81;;;27.23;33.42
61488;BME280;47351;53.326;-6.298;2023-04-25T09:20:06;101574.65;;;27.68;33.11
61488;BME280;47351;53.326;-6.298;2023-04-25T09:23:03;101578.77;;;28.00;32.56
61488;BME280;47351;53.326;-6.298;2023-04-25T09:25:56;101582.13;;;27.00;30.99
61488;BME280;47351;53.326;-6.298;2023-04-25T09:28:46;101581.05;;;26.27;30.58
61488;BME280;47351;53.326;-6.298;2023-04-25T09:31:40;101587.95;;;25.00;32.13
61488;BME280;47351;53.326;-6.298;2023-04-25T09:34:34;101593.25;;;23.35;33.51
61488;BME280;47351;53.326;-6.298;2023-04-25T09:37:29;101591.28;;;21.80;35.05
61488;BME280;47351;53.326;-6.298;2023-04-25T09:40:49;101597.88;;;20.78;36.24
61488;BME280;47351;53.326;-6.298;2023-04-25T09:43:48;101580.81;;;22.61;35.29
61488;BME280;47351;53.326;-6.298;2023-04-25T09:46:40;101575.95;;;24.48;33.19
61488;BME280;47351;53.326;-6.298;2023-04-25T09:49:39;101578.70;;;25.95;31.88
61488;BME280;47351;53.326;-6.298;2023-04-25T09:52:33;101580.14;;;26.99;30.10
61488;BME280;47351;53.326;-6.298;2023-04-25T09:55:43;101581.25;;;26.04;30.21
61488;BME280;47351;53.326;-6.298;2023-04-25T09:58:36;101578.41;;;26.17;30.08
61488;BME280;47351;53.326;-6.298;2023-04-25T10:01:28;101581.70;;;26.49;29.81
61488;BME280;47351;53.326;-6.298;2023-04-25T10:04:25;101583.21;;;26.61;29.73
61488;BME280;47351;53.326;-6.298;2023-04-25T10:07:29;101586.27;;;27.05;29.63
61488;BME280;47351;53.326;-6.298;2023-04-25T10:10:20;101588.61;;;27.04;29.07
61488;BME280;47351;53.326;-6.298;2023-04-25T10:13:14;101590.34;;;26.72;29.11
61488;BME280;47351;53.326;-6.298;2023-04-25T10:16:05;101586.08;;;26.44;28.71
61488;BME280;47351;53.326;-6.298;2023-04-25T10:18:55;101592.76;;;26.25;29.27
61488;BME280;47351;53.326;-6.298;2023-04-25T10:21:48;101602.16;;;25.60;29.50
61488;BME280;47351;53.326;-6.298;2023-04-25T10:24:40;101602.20;;;24.06;30.35
61488;BME280;47351;53.326;-6.298;2023-04-25T10:27:31;101602.58;;;22.85;31.25
61488;BME280;47351;53.326;-6.298;2023-04-25T10:30:21;101605.91;;;21.56;31.55
61488;BME280;47351;53.326;-6.298;2023-04-25T10:33:17;101605.11;;;20.81;32.44
61488;BME280;47351;53.326;-6.298;2023-04-25T10:36:12;101601.09;;;20.16;33.48
61488;BME280;47351;53.326;-6.298;2023-04-25T10:39:04;101599.75;;;19.61;34.38
61488;BME280;47351;53.326;-6.298;2023-04-25T10:41:57;101602.82;;;19.08;34.98
61488;BME280;47351;53.326;-6.298;2023-04-25T10:45:01;101606.55;;;18.78;35.22
61488;BME280;47351;53.326;-6.298;2023-04-25T10:47:52;101604.45;;;18.61;34.94
61488;BME280;47351;53.326;-6.298;2023-04-25T10:50:43;101602.61;;;18.48;35.27
61488;BME280;47351;53.326;-6.298;2023-04-25T10:53:34;101602.20;;;18.75;35.47
61488;BME280;47351;53.326;-6.298;2023-04-25T10:56:24;101595.77;;;19.46;35.15
61488;BME280;47351;53.326;-6.298;2023-04-25T10:59:15;101595.94;;;20.36;34.58
61488;BME280;47351;53.326;-6.298;2023-04-25T11:02:11;101593.39;;;21.08;33.91
61488;BME280;47351;53.326;-6.298;2023-04-25T11:05:02;101596.98;;;20.59;33.93
61488;BME280;47351;53.326;-6.298;2023-04-25T11:07:53;101596.46;;;20.18;34.54
61488;BME280;47351;53.326;-6.298;2023-04-25T11:10:48;101592.91;;;20.42;34.55
61488;BME280;47351;53.326;-6.298;2023-04-25T11:13:39;101586.65;;;20.66;34.12
61488;BME280;47351;53.326;-6.298;2023-04-25T11:16:29;101579.90;;;20.99;33.62
61488;BME280;47351;53.326;-6.298;2023-04-25T11:19:20;101572.33;;;23.48;31.92
61488;BME280;47351;53.326;-6.298;2023-04-25T11:22:11;101564.19;;;26.10;30.63
61488;BME280;47351;53.326;-6.298;2023-04-25T11:25:05;101560.28;;;27.56;28.48
61488;BME280;47351;53.326;-6.298;2023-04-25T11:27:57;101561.74;;;28.54;27.25
61488;BME280;47351;53.326;-6.298;2023-04-25T11:30:49;101563.26;;;28.83;25.28
61488;BME280;47351;53.326;-6.298;2023-04-25T11:33:39;101560.12;;;29.22;25.54
61488;BME280;47351;53.326;-6.298;2023-04-25T11:36:31;101559.95;;;27.92;25.87
61488;BME280;47351;53.326;-6.298;2023-04-25T11:39:21;101558.53;;;27.19;26.17
61488;BME280;47351;53.326;-6.298;2023-04-25T11:42:11;101557.34;;;28.23;25.15
61488;BME280;47351;53.326;-6.298;2023-04-25T11:45:01;101551.53;;;28.24;24.71
61488;BME280;47351;53.326;-6.298;2023-04-25T11:47:53;101549.08;;;28.49;24.97
61488;BME280;47351;53.326;-6.298;2023-04-25T11:50:43;101548.86;;;28.85;24.79
61488;BME280;47351;53.326;-6.298;2023-04-25T11:53:33;101544.23;;;29.80;24.18
61488;BME280;47351;53.326;-6.298;2023-04-25T11:56:23;101550.04;;;28.27;24.43
61488;BME280;47351;53.326;-6.298;2023-04-25T11:59:14;101548.95;;;25.78;25.40
61488;BME280;47351;53.326;-6.298;2023-04-25T12:02:05;101548.45;;;24.74;25.82
61488;BME280;47351;53.326;-6.298;2023-04-25T12:05:00;101546.26;;;26.12;24.75
61488;BME280;47351;53.326;-6.298;2023-04-25T12:08:12;101543.16;;;27.71;24.30
61488;BME280;47351;53.326;-6.298;2023-04-25T12:11:03;101548.74;;;28.83;24.13
61488;BME280;47351;53.326;-6.298;2023-04-25T12:13:54;101547.81;;;28.83;23.80
61488;BME280;47351;53.326;-6.298;2023-04-25T12:16:44;101546.48;;;28.97;23.89
61488;BME280;47351;53.326;-6.298;2023-04-25T12:19:35;101544.52;;;27.68;23.94
61488;BME280;47351;53.326;-6.298;2023-04-25T12:22:29;101547.17;;;25.04;25.48
61488;BME280;47351;53.326;-6.298;2023-04-25T12:25:36;101553.09;;;23.14;27.22
61488;BME280;47351;53.326;-6.298;2023-04-25T12:28:27;101555.57;;;21.83;28.67
61488;BME280;47351;53.326;-6.298;2023-04-25T12:31:17;101565.79;;;20.75;30.14
61488;BME280;47351;53.326;-6.298;2023-04-25T12:34:07;101561.87;;;19.99;30.99
61488;BME280;47351;53.326;-6.298;2023-04-25T12:36:57;101562.89;;;19.57;31.44
61488;BME280;47351;53.326;-6.298;2023-04-25T12:39:47;101560.88;;;19.38;31.99
61488;BME280;47351;53.326;-6.298;2023-04-25T12:42:39;101558.34;;;19.43;32.31
61488;BME280;47351;53.326;-6.298;2023-04-25T12:45:29;101561.04;;;19.46;32.72
61488;BME280;47351;53.326;-6.298;2023-04-25T12:48:20;101553.13;;;19.30;32.84
61488;BME280;47351;53.326;-6.298;2023-04-25T12:51:10;101559.35;;;19.00;33.45
61488;BME280;47351;53.326;-6.298;2023-04-25T12:54:01;101562.48;;;18.57;34.04
61488;BME280;47351;53.326;-6.298;2023-04-25T12:56:51;101563.42;;;18.12;34.65
61488;BME280;47351;53.326;-6.298;2023-04-25T12:59:41;101565.78;;;17.73;34.98
61488;BME280;47351;53.326;-6.298;2023-04-25T13:02:31;101564.46;;;17.43;35.14
61488;BME280;47351;53.326;-6.298;2023-04-25T13:05:21;101558.69;;;17.46;35.28
61488;BME280;47351;53.326;-6.298;2023-04-25T13:08:12;101560.60;;;17.37;35.20
61488;BME280;47351;53.326;-6.298;2023-04-25T13:11:02;101553.98;;;17.23;35.40
61488;BME280;47351;53.326;-6.298;2023-04-25T13:13:52;101552.90;;;16.89;35.98
61488;BME280;47351;53.326;-6.298;2023-04-25T13:16:42;101558.94;;;16.49;36.81
61488;BME280;47351;53.326;-6.298;2023-04-25T13:19:32;101557.81;;;16.08;37.48
61488;BME280;47351;53.326;-6.298;2023-04-25T13:22:23;101559.06;;;15.58;38.45
61488;BME280;47351;53.326;-6.298;2023-04-25T13:25:13;101555.84;;;15.22;39.27
61488;BME280;47351;53.326;-6.298;2023-04-25T13:28:04;101561.94;;;15.07;40.00
61488;BME280;47351;53.326;-6.298;2023-04-25T13:30:54;101560.85;;;15.04;40.54
61488;BME280;47351;53.326;-6.298;2023-04-25T13:33:44;101562.58;;;15.21;40.66
61488;BME280;47351;53.326;-6.298;2023-04-25T13:36:35;101562.08;;;15.50;40.15
61488;BME280;47351;53.326;-6.298;2023-04-25T13:39:25;101559.59;;;15.98;39.88
61488;BME280;47351;53.326;-6.298;2023-04-25T13:42:15;101542.16;;;16.94;38.90
61488;BME280;47351;53.326;-6.298;2023-04-25T13:45:06;101543.21;;;17.09;38.86
61488;BME280;47351;53.326;-6.298;2023-04-25T13:47:57;101538.44;;;17.07;39.12
61488;BME280;47351;53.326;-6.298;2023-04-25T13:50:47;101542.71;;;17.02;39.30
61488;BME280;47351;53.326;-6.298;2023-04-25T13:53:37;101540.83;;;16.81;39.36
61488;BME280;47351;53.326;-6.298;2023-04-25T13:56:27;101543.66;;;16.44;39.31
61488;BME280;47351;53.326;-6.298;2023-04-25T13:59:18;101543.23;;;15.92;39.73
61488;BME280;47351;53.326;-6.298;2023-04-25T14:02:08;101540.59;;;15.46;40.29
61488;BME280;47351;53.326;-6.298;2023-04-25T14:04:58;101533.35;;;15.24;41.06
61488;BME280;47351;53.326;-6.298;2023-04-25T14:07:48;101529.93;;;14.97;41.04
61488;BME280;47351;53.326;-6.298;2023-04-25T14:10:39;101536.23;;;14.64;41.24
61488;BME280;47351;53.326;-6.298;2023-04-25T14:13:29;101532.73;;;14.43;41.39
61488;BME280;47351;53.326;-6.298;2023-04-25T14:16:19;101531.75;;;14.31;41.92
61488;BME280;47351;53.326;-6.298;2023-04-25T14:19:09;101533.48;;;14.25;41.94
61488;BME280;47351;53.326;-6.298;2023-04-25T14:22:00;101529.08;;;14.31;42.06
61488;BME280;47351;53.326;-6.298;2023-04-25T14:24:50;101523.65;;;14.49;42.05
61488;BME280;47351;53.326;-6.298;2023-04-25T14:27:40;101516.84;;;14.84;41.20
61488;BME280;47351;53.326;-6.298;2023-04-25T14:30:30;101514.60;;;15.53;39.51
61488;BME280;47351;53.326;-6.298;2023-04-25T14:33:20;101510.27;;;16.00;38.87
61488;BME280;47351;53.326;-6.298;2023-04-25T14:36:12;101510.00;;;16.07;38.86
61488;BME280;47351;53.326;-6.298;2023-04-25T14:39:03;101504.52;;;16.21;38.61
61488;BME280;47351;53.326;-6.298;2023-04-25T14:41:54;101502.41;;;16.17;38.29
61488;BME280;47351;53.326;-6.298;2023-04-25T14:44:44;101505.17;;;15.91;37.78
61488;BME280;47351;53.326;-6.298;2023-04-25T14:47:35;101503.38;;;15.57;38.72
61488;BME280;47351;53.326;-6.298;2023-04-25T14:50:25;101501.23;;;15.38;38.60
61488;BME280;47351;53.326;-6.298;2023-04-25T14:53:16;101501.04;;;15.12;38.96
61488;BME280;47351;53.326;-6.298;2023-04-25T14:56:06;101501.08;;;14.93;39.04
61488;BME280;47351;53.326;-6.298;2023-04-25T14:58:57;101506.16;;;14.70;39.36
61488;BME280;47351;53.326;-6.298;2023-04-25T15:01:47;101508.63;;;14.55;39.81
61488;BME280;47351;53.326;-6.298;2023-04-25T15:04:37;101510.61;;;14.48;40.14
61488;BME280;47351;53.326;-6.298;2023-04-25T15:07:28;101510.66;;;14.32;39.94
61488;BME280;47351;53.326;-6.298;2023-04-25T15:10:18;101509.63;;;14.15;40.03
61488;BME280;47351;53.326;-6.298;2023-04-25T15:13:09;101501.95;;;13.98;40.27
61488;BME280;47351;53.326;-6.298;2023-04-25T15:15:59;101508.89;;;13.81;40.82
61488;BME280;47351;53.326;-6.298;2023-04-25T15:18:49;101504.67;;;13.71;41.16